sensor_id;sensor_type;location;lat;lon;timestamp;P1;durP1;ratioP1;P2;durP2;ratioP2
48552;SDS011;34335;51.566;6.994;2023-06-26T00:02:08;5.90;;;2.97;;
48552;SDS011;34335;51.566;6.994;2023-06-26T00:04:33;6.70;;;3.33;;
48552;SDS011;34335;51.566;6.994;2023-06-26T00:07:00;6.00;;;3.35;;
48552;SDS011;34335;51.566;6.994;2023-06-26T00:09:26;4.75;;;3.00;;
48552;SDS011;34335;51.566;6.994;2023-06-26T00:11:51;5.33;;;3.23;;
48552;SDS011;34335;51.566;6.994;2023-06-26T00:14:17;5.13;;;3.08;;
48552;SDS011;34335;51.566;6.994;2023-06-26T00:16:46;6.85;;;3.60;;
48552;SDS011;34335;51.566;6.994;2023-06-26T00:19:11;4.80;;;3.28;;
48552;SDS011;34335;51.566;6.994;2023-06-26T00:21:37;6.68;;;2.95;;
48552;SDS011;34335;51.566;6.994;2023-06-26T00:24:02;7.13;;;3.47;;
48552;SDS011;34335;51.566;6.994;2023-06-26T00:26:28;6.47;;;3.33;;
48552;SDS011;34335;51.566;6.994;2023-06-26T00:28:53;4.63;;;2.77;;
48552;SDS011;34335;51.566;6.994;2023-06-26T00:31:18;4.60;;;2.83;;
48552;SDS011;34335;51.566;6.994;2023-06-26T00:33:44;5.68;;;3.45;;
48552;SDS011;34335;51.566;6.994;2023-06-26T00:36:09;5.13;;;3.13;;
48552;SDS011;34335;51.566;6.994;2023-06-26T00:38:34;7.93;;;2.93;;
48552;SDS011;34335;51.566;6.994;2023-06-26T00:41:00;5.35;;;3.33;;
48552;SDS011;34335;51.566;6.994;2023-06-26T00:43:25;4.80;;;3.08;;
48552;SDS011;34335;51.566;6.994;2023-06-26T00:45:51;7.53;;;3.50;;
48552;SDS011;34335;51.566;6.994;2023-06-26T00:48:16;5.90;;;3.25;;
48552;SDS011;34335;51.566;6.994;2023-06-26T00:50:42;5.50;;;3.30;;
48552;SDS011;34335;51.566;6.994;2023-06-26T00:53:09;6.22;;;3.40;;
48552;SDS011;34335;51.566;6.994;2023-06-26T00:55:35;6.40;;;4.00;;
48552;SDS011;34335;51.566;6.994;2023-06-26T00:58:01;5.75;;;2.85;;
48552;SDS011;34335;51.566;6.994;2023-06-26T01:00:26;6.40;;;3.23;;
48552;SDS011;34335;51.566;6.994;2023-06-26T01:02:52;5.53;;;3.28;;
48552;SDS011;34335;51.566;6.994;2023-06-26T01:05:17;6.40;;;3.00;;
48552;SDS011;34335;51.566;6.994;2023-06-26T01:07:45;6.45;;;3.15;;
48552;SDS011;34335;51.566;6.994;2023-06-26T01:10:12;6.60;;;3.35;;
48552;SDS011;34335;51.566;6.994;2023-06-26T01:12:38;5.87;;;3.00;;
48552;SDS011;34335;51.566;6.994;2023-06-26T01:15:04;6.20;;;3.25;;
48552;SDS011;34335;51.566;6.994;2023-06-26T01:17:29;5.53;;;3.13;;
48552;SDS011;34335;51.566;6.994;2023-06-26T01:19:57;7.53;;;3.20;;
48552;SDS011;34335;51.566;6.994;2023-06-26T01:25:15;6.40;;;3.03;;
48552;SDS011;34335;51.566;6.994;2023-06-26T01:27:54;5.95;;;3.15;;
48552;SDS011;34335;51.566;6.994;2023-06-26T01:30:21;4.97;;;3.25;;
48552;SDS011;34335;51.566;6.994;2023-06-26T01:32:47;6.15;;;3.08;;
48552;SDS011;34335;51.566;6.994;2023-06-26T01:35:13;5.30;;;3.05;;
48552;SDS011;34335;51.566;6.994;2023-06-26T01:37:40;6.10;;;3.47;;
48552;SDS011;34335;51.566;6.994;2023-06-26T01:40:05;5.00;;;2.93;;
48552;SDS011;34335;51.566;6.994;2023-06-26T01:42:32;6.15;;;2.70;;
48552;SDS011;34335;51.566;6.994;2023-06-26T01:44:58;5.38;;;3.13;;
48552;SDS011;34335;51.566;6.994;2023-06-26T01:47:46;6.20;;;3.30;;
48552;SDS011;34335;51.566;6.994;2023-06-26T01:50:20;5.53;;;3.40;;
48552;SDS011;34335;51.566;6.994;2023-06-26T01:52:53;6.57;;;3.58;;
48552;SDS011;34335;51.566;6.994;2023-06-26T01:57:52;5.23;;;3.10;;
48552;SDS011;34335;51.566;6.994;2023-06-26T02:00:20;7.72;;;3.72;;
48552;SDS011;34335;51.566;6.994;2023-06-26T02:02:46;8.93;;;4.05;;
48552;SDS011;34335;51.566;6.994;2023-06-26T02:05:12;6.28;;;3.30;;
48552;SDS011;34335;51.566;6.994;2023-06-26T02:07:38;5.90;;;3.30;;
48552;SDS011;34335;51.566;6.994;2023-06-26T02:10:04;6.10;;;3.63;;
48552;SDS011;34335;51.566;6.994;2023-06-26T02:12:30;7.05;;;3.22;;
48552;SDS011;34335;51.566;6.994;2023-06-26T02:14:55;6.37;;;3.60;;
48552;SDS011;34335;51.566;6.994;2023-06-26T02:17:20;6.27;;;3.87;;
48552;SDS011;34335;51.566;6.994;2023-06-26T02:19:46;7.05;;;3.80;;
48552;SDS011;34335;51.566;6.994;2023-06-26T02:22:12;5.45;;;3.33;;
48552;SDS011;34335;51.566;6.994;2023-06-26T02:24:41;5.90;;;3.42;;
48552;SDS011;34335;51.566;6.994;2023-06-26T02:27:07;7.38;;;3.50;;
48552;SDS011;34335;51.566;6.994;2023-06-26T02:29:33;5.65;;;3.53;;
48552;SDS011;34335;51.566;6.994;2023-06-26T02:31:58;6.50;;;3.10;;
48552;SDS011;34335;51.566;6.994;2023-06-26T02:34:23;4.30;;;3.00;;
48552;SDS011;34335;51.566;6.994;2023-06-26T02:36:49;6.18;;;3.30;;
48552;SDS011;34335;51.566;6.994;2023-06-26T02:39:14;5.53;;;3.13;;
48552;SDS011;34335;51.566;6.994;2023-06-26T02:41:39;6.35;;;3.15;;
48552;SDS011;34335;51.566;6.994;2023-06-26T02:44:05;4.47;;;2.72;;
48552;SDS011;34335;51.566;6.994;2023-06-26T02:46:31;5.45;;;3.35;;
48552;SDS011;34335;51.566;6.994;2023-06-26T02:48:56;4.50;;;2.80;;
48552;SDS011;34335;51.566;6.994;2023-06-26T02:51:22;6.40;;;3.47;;
48552;SDS011;34335;51.566;6.994;2023-06-26T02:53:47;4.80;;;2.60;;
48552;SDS011;34335;51.566;6.994;2023-06-26T02:56:12;4.63;;;3.10;;
48552;SDS011;34335;51.566;6.994;2023-06-26T02:58:37;7.43;;;3.13;;
48552;SDS011;34335;51.566;6.994;2023-06-26T03:01:03;4.70;;;2.80;;
48552;SDS011;34335;51.566;6.994;2023-06-26T03:03:28;6.33;;;3.23;;
48552;SDS011;34335;51.566;6.994;2023-06-26T03:05:53;6.67;;;2.97;;
48552;SDS011;34335;51.566;6.994;2023-06-26T03:08:18;5.67;;;3.57;;
48552;SDS011;34335;51.566;6.994;2023-06-26T03:10:44;5.63;;;3.65;;
48552;SDS011;34335;51.566;6.994;2023-06-26T03:13:09;5.18;;;2.83;;
48552;SDS011;34335;51.566;6.994;2023-06-26T03:15:35;5.35;;;3.15;;
48552;SDS011;34335;51.566;6.994;2023-06-26T03:18:00;5.50;;;3.10;;
48552;SDS011;34335;51.566;6.994;2023-06-26T03:20:26;5.05;;;2.75;;
48552;SDS011;34335;51.566;6.994;2023-06-26T03:22:51;6.05;;;3.22;;
48552;SDS011;34335;51.566;6.994;2023-06-26T03:25:17;5.13;;;2.97;;
48552;SDS011;34335;51.566;6.994;2023-06-26T03:27:42;5.45;;;3.22;;
48552;SDS011;34335;51.566;6.994;2023-06-26T03:30:26;7.80;;;3.10;;
48552;SDS011;34335;51.566;6.994;2023-06-26T03:32:52;4.87;;;2.97;;
48552;SDS011;34335;51.566;6.994;2023-06-26T03:35:17;6.43;;;3.80;;
48552;SDS011;34335;51.566;6.994;2023-06-26T03:37:43;6.30;;;3.15;;
48552;SDS011;34335;51.566;6.994;2023-06-26T03:40:08;6.07;;;3.45;;
48552;SDS011;34335;51.566;6.994;2023-06-26T03:42:34;5.47;;;2.85;;
48552;SDS011;34335;51.566;6.994;2023-06-26T03:44:59;5.72;;;3.42;;
48552;SDS011;34335;51.566;6.994;2023-06-26T03:47:25;4.82;;;2.83;;
48552;SDS011;34335;51.566;6.994;2023-06-26T03:49:50;6.03;;;3.07;;
48552;SDS011;34335;51.566;6.994;2023-06-26T03:52:15;5.53;;;3.50;;
48552;SDS011;34335;51.566;6.994;2023-06-26T03:54:40;5.67;;;3.20;;
48552;SDS011;34335;51.566;6.994;2023-06-26T03:57:06;6.28;;;4.00;;
48552;SDS011;34335;51.566;6.994;2023-06-26T03:59:31;5.30;;;3.43;;
48552;SDS011;34335;51.566;6.994;2023-06-26T04:01:57;6.37;;;3.10;;
48552;SDS011;34335;51.566;6.994;2023-06-26T04:04:22;6.93;;;3.63;;
48552;SDS011;34335;51.566;6.994;2023-06-26T04:06:47;7.20;;;3.97;;
48552;SDS011;34335;51.566;6.994;2023-06-26T04:09:12;6.07;;;3.27;;
48552;SDS011;34335;51.566;6.994;2023-06-26T04:11:38;6.82;;;3.67;;
48552;SDS011;34335;51.566;6.994;2023-06-26T04:14:03;7.47;;;3.87;;
48552;SDS011;34335;51.566;6.994;2023-06-26T04:16:29;6.72;;;3.50;;
48552;SDS011;34335;51.566;6.994;2023-06-26T04:18:54;5.60;;;3.33;;
48552;SDS011;34335;51.566;6.994;2023-06-26T04:21:21;5.95;;;3.65;;
48552;SDS011;34335;51.566;6.994;2023-06-26T04:23:49;5.28;;;3.15;;
48552;SDS011;34335;51.566;6.994;2023-06-26T04:26:16;6.43;;;3.70;;
48552;SDS011;34335;51.566;6.994;2023-06-26T04:28:41;5.38;;;3.45;;
48552;SDS011;34335;51.566;6.994;2023-06-26T04:31:07;7.90;;;3.15;;
48552;SDS011;34335;51.566;6.994;2023-06-26T04:33:33;4.45;;;2.83;;
48552;SDS011;34335;51.566;6.994;2023-06-26T04:36:01;7.28;;;3.10;;
48552;SDS011;34335;51.566;6.994;2023-06-26T04:38:28;5.70;;;3.25;;
48552;SDS011;34335;51.566;6.994;2023-06-26T04:40:53;7.15;;;3.40;;
48552;SDS011;34335;51.566;6.994;2023-06-26T04:43:19;5.63;;;2.90;;
48552;SDS011;34335;51.566;6.994;2023-06-26T04:45:44;5.23;;;2.67;;
48552;SDS011;34335;51.566;6.994;2023-06-26T04:48:09;15.80;;;4.18;;
48552;SDS011;34335;51.566;6.994;2023-06-26T04:50:35;17.90;;;4.07;;
48552;SDS011;34335;51.566;6.994;2023-06-26T04:53:00;9.63;;;3.75;;
48552;SDS011;34335;51.566;6.994;2023-06-26T04:55:25;4.65;;;2.65;;
48552;SDS011;34335;51.566;6.994;2023-06-26T04:57:51;4.72;;;2.63;;
48552;SDS011;34335;51.566;6.994;2023-06-26T05:00:17;9.85;;;2.72;;
48552;SDS011;34335;51.566;6.994;2023-06-26T05:02:43;7.30;;;2.47;;
48552;SDS011;34335;51.566;6.994;2023-06-26T05:05:09;5.90;;;2.47;;
48552;SDS011;34335;51.566;6.994;2023-06-26T05:07:35;5.97;;;2.65;;
48552;SDS011;34335;51.566;6.994;2023-06-26T05:10:00;5.65;;;2.92;;
48552;SDS011;34335;51.566;6.994;2023-06-26T05:12:26;4.97;;;2.53;;
48552;SDS011;34335;51.566;6.994;2023-06-26T05:14:51;5.27;;;3.10;;
48552;SDS011;34335;51.566;6.994;2023-06-26T05:17:16;5.87;;;2.93;;
48552;SDS011;34335;51.566;6.994;2023-06-26T05:19:41;7.07;;;2.43;;
48552;SDS011;34335;51.566;6.994;2023-06-26T05:22:07;5.85;;;2.85;;
48552;SDS011;34335;51.566;6.994;2023-06-26T05:24:37;7.93;;;3.03;;
48552;SDS011;34335;51.566;6.994;2023-06-26T05:27:03;5.97;;;2.65;;
48552;SDS011;34335;51.566;6.994;2023-06-26T05:29:30;5.45;;;2.65;;
48552;SDS011;34335;51.566;6.994;2023-06-26T05:31:56;4.95;;;2.53;;
48552;SDS011;34335;51.566;6.994;2023-06-26T05:34:25;5.63;;;2.38;;
48552;SDS011;34335;51.566;6.994;2023-06-26T05:36:54;4.32;;;2.13;;
48552;SDS011;34335;51.566;6.994;2023-06-26T05:39:23;3.95;;;2.08;;
48552;SDS011;34335;51.566;6.994;2023-06-26T05:41:49;6.15;;;2.55;;
48552;SDS011;34335;51.566;6.994;2023-06-26T05:44:14;5.55;;;2.78;;
48552;SDS011;34335;51.566;6.994;2023-06-26T05:46:40;8.73;;;2.73;;
48552;SDS011;34335;51.566;6.994;2023-06-26T05:49:05;5.32;;;2.65;;
48552;SDS011;34335;51.566;6.994;2023-06-26T05:51:30;4.63;;;2.50;;
48552;SDS011;34335;51.566;6.994;2023-06-26T05:53:56;4.88;;;2.25;;
48552;SDS011;34335;51.566;6.994;2023-06-26T05:56:22;6.05;;;2.17;;
48552;SDS011;34335;51.566;6.994;2023-06-26T05:58:47;6.15;;;2.55;;
48552;SDS011;34335;51.566;6.994;2023-06-26T06:01:13;5.32;;;2.10;;
48552;SDS011;34335;51.566;6.994;2023-06-26T06:03:39;6.53;;;2.17;;
48552;SDS011;34335;51.566;6.994;2023-06-26T06:06:04;6.75;;;2.45;;
48552;SDS011;34335;51.566;6.994;2023-06-26T06:08:30;9.18;;;2.35;;
48552;SDS011;34335;51.566;6.994;2023-06-26T06:10:55;6.55;;;2.25;;
48552;SDS011;34335;51.566;6.994;2023-06-26T06:13:20;4.67;;;2.40;;
48552;SDS011;34335;51.566;6.994;2023-06-26T06:15:46;8.23;;;2.80;;
48552;SDS011;34335;51.566;6.994;2023-06-26T06:18:11;3.57;;;1.93;;
48552;SDS011;34335;51.566;6.994;2023-06-26T06:20:36;5.07;;;2.00;;
48552;SDS011;34335;51.566;6.994;2023-06-26T06:23:01;4.25;;;2.17;;
48552;SDS011;34335;51.566;6.994;2023-06-26T06:25:27;6.13;;;1.93;;
48552;SDS011;34335;51.566;6.994;2023-06-26T06:27:52;3.70;;;2.07;;
48552;SDS011;34335;51.566;6.994;2023-06-26T06:30:17;5.53;;;2.13;;
48552;SDS011;34335;51.566;6.994;2023-06-26T06:32:43;5.07;;;1.97;;
48552;SDS011;34335;51.566;6.994;2023-06-26T06:35:08;3.25;;;1.95;;
48552;SDS011;34335;51.566;6.994;2023-06-26T06:37:35;4.63;;;1.83;;
48552;SDS011;34335;51.566;6.994;2023-06-26T06:40:02;4.15;;;2.15;;
48552;SDS011;34335;51.566;6.994;2023-06-26T06:42:28;6.90;;;2.28;;
48552;SDS011;34335;51.566;6.994;2023-06-26T06:44:54;3.37;;;1.80;;
48552;SDS011;34335;51.566;6.994;2023-06-26T06:47:19;7.33;;;2.20;;
48552;SDS011;34335;51.566;6.994;2023-06-26T06:49:44;6.90;;;2.00;;
48552;SDS011;34335;51.566;6.994;2023-06-26T06:52:09;3.67;;;1.97;;
48552;SDS011;34335;51.566;6.994;2023-06-26T06:54:50;4.78;;;2.15;;
48552;SDS011;34335;51.566;6.994;2023-06-26T06:57:17;4.85;;;2.80;;
48552;SDS011;34335;51.566;6.994;2023-06-26T06:59:42;11.13;;;2.22;;
48552;SDS011;34335;51.566;6.994;2023-06-26T07:02:07;5.60;;;2.63;;
48552;SDS011;34335;51.566;6.994;2023-06-26T07:04:32;6.30;;;2.53;;
48552;SDS011;34335;51.566;6.994;2023-06-26T07:06:58;5.40;;;2.30;;
48552;SDS011;34335;51.566;6.994;2023-06-26T07:09:23;9.80;;;2.63;;
48552;SDS011;34335;51.566;6.994;2023-06-26T07:11:48;6.20;;;2.63;;
48552;SDS011;34335;51.566;6.994;2023-06-26T07:14:14;8.57;;;2.53;;
48552;SDS011;34335;51.566;6.994;2023-06-26T07:16:39;6.03;;;2.60;;
48552;SDS011;34335;51.566;6.994;2023-06-26T07:19:04;4.83;;;2.13;;
48552;SDS011;34335;51.566;6.994;2023-06-26T07:21:29;5.72;;;2.30;;
48552;SDS011;34335;51.566;6.994;2023-06-26T07:23:55;7.60;;;2.57;;
48552;SDS011;34335;51.566;6.994;2023-06-26T07:26:20;6.43;;;2.27;;
48552;SDS011;34335;51.566;6.994;2023-06-26T07:28:47;6.45;;;2.00;;
48552;SDS011;34335;51.566;6.994;2023-06-26T07:31:13;4.38;;;2.22;;
48552;SDS011;34335;51.566;6.994;2023-06-26T07:33:39;5.88;;;2.45;;
48552;SDS011;34335;51.566;6.994;2023-06-26T07:36:05;6.25;;;2.53;;
48552;SDS011;34335;51.566;6.994;2023-06-26T07:38:30;8.65;;;2.60;;
48552;SDS011;34335;51.566;6.994;2023-06-26T07:40:56;4.93;;;2.40;;
48552;SDS011;34335;51.566;6.994;2023-06-26T07:43:21;5.03;;;2.60;;
48552;SDS011;34335;51.566;6.994;2023-06-26T07:45:47;4.20;;;2.30;;
48552;SDS011;34335;51.566;6.994;2023-06-26T07:48:13;8.48;;;2.55;;
48552;SDS011;34335;51.566;6.994;2023-06-26T07:50:38;5.00;;;2.50;;
48552;SDS011;34335;51.566;6.994;2023-06-26T07:53:04;6.93;;;2.20;;
48552;SDS011;34335;51.566;6.994;2023-06-26T07:55:30;5.85;;;2.67;;
48552;SDS011;34335;51.566;6.994;2023-06-26T07:57:56;7.95;;;2.33;;
48552;SDS011;34335;51.566;6.994;2023-06-26T08:00:21;7.40;;;3.08;;
48552;SDS011;34335;51.566;6.994;2023-06-26T08:02:47;5.18;;;1.98;;
48552;SDS011;34335;51.566;6.994;2023-06-26T08:05:12;8.00;;;2.97;;
48552;SDS011;34335;51.566;6.994;2023-06-26T08:07:38;4.65;;;2.25;;
48552;SDS011;34335;51.566;6.994;2023-06-26T08:10:04;4.97;;;2.10;;
48552;SDS011;34335;51.566;6.994;2023-06-26T08:12:29;3.97;;;1.75;;
48552;SDS011;34335;51.566;6.994;2023-06-26T08:14:55;4.70;;;2.43;;
48552;SDS011;34335;51.566;6.994;2023-06-26T08:17:20;7.40;;;2.47;;
48552;SDS011;34335;51.566;6.994;2023-06-26T08:19:45;5.03;;;2.20;;
48552;SDS011;34335;51.566;6.994;2023-06-26T08:22:11;4.17;;;1.90;;
48552;SDS011;34335;51.566;6.994;2023-06-26T08:24:36;7.85;;;2.65;;
48552;SDS011;34335;51.566;6.994;2023-06-26T08:27:01;4.75;;;1.98;;
48552;SDS011;34335;51.566;6.994;2023-06-26T08:29:28;4.50;;;2.30;;
48552;SDS011;34335;51.566;6.994;2023-06-26T08:31:54;5.53;;;2.80;;
48552;SDS011;34335;51.566;6.994;2023-06-26T08:34:19;6.30;;;2.13;;
48552;SDS011;34335;51.566;6.994;2023-06-26T08:36:44;4.20;;;1.87;;
48552;SDS011;34335;51.566;6.994;2023-06-26T08:39:10;7.18;;;2.70;;
48552;SDS011;34335;51.566;6.994;2023-06-26T08:41:35;6.93;;;3.65;;
48552;SDS011;34335;51.566;6.994;2023-06-26T08:44:01;5.18;;;1.67;;
48552;SDS011;34335;51.566;6.994;2023-06-26T08:46:28;4.13;;;2.08;;
48552;SDS011;34335;51.566;6.994;2023-06-26T08:48:58;3.88;;;2.28;;
48552;SDS011;34335;51.566;6.994;2023-06-26T08:51:26;5.75;;;2.17;;
48552;SDS011;34335;51.566;6.994;2023-06-26T08:53:57;6.15;;;2.20;;
48552;SDS011;34335;51.566;6.994;2023-06-26T08:56:24;7.60;;;1.80;;
48552;SDS011;34335;51.566;6.994;2023-06-26T08:58:50;5.53;;;1.90;;
48552;SDS011;34335;51.566;6.994;2023-06-26T09:01:15;4.17;;;1.80;;
48552;SDS011;34335;51.566;6.994;2023-06-26T09:03:42;5.28;;;2.20;;
48552;SDS011;34335;51.566;6.994;2023-06-26T09:06:08;4.80;;;1.35;;
48552;SDS011;34335;51.566;6.994;2023-06-26T09:08:33;4.47;;;2.00;;
48552;SDS011;34335;51.566;6.994;2023-06-26T09:10:59;5.93;;;2.17;;
48552;SDS011;34335;51.566;6.994;2023-06-26T09:13:24;5.38;;;1.98;;
48552;SDS011;34335;51.566;6.994;2023-06-26T09:15:50;3.42;;;1.60;;
48552;SDS011;34335;51.566;6.994;2023-06-26T09:18:18;6.30;;;1.75;;
48552;SDS011;34335;51.566;6.994;2023-06-26T09:20:44;5.75;;;1.92;;
48552;SDS011;34335;51.566;6.994;2023-06-26T09:23:10;5.22;;;1.55;;
48552;SDS011;34335;51.566;6.994;2023-06-26T09:25:37;5.55;;;2.13;;
48552;SDS011;34335;51.566;6.994;2023-06-26T09:28:04;6.32;;;1.95;;
48552;SDS011;34335;51.566;6.994;2023-06-26T09:30:31;4.72;;;1.75;;
48552;SDS011;34335;51.566;6.994;2023-06-26T09:32:57;5.78;;;2.10;;
48552;SDS011;34335;51.566;6.994;2023-06-26T09:35:23;5.65;;;2.08;;
48552;SDS011;34335;51.566;6.994;2023-06-26T09:37:50;4.18;;;1.90;;
48552;SDS011;34335;51.566;6.994;2023-06-26T09:40:15;5.55;;;1.70;;
48552;SDS011;34335;51.566;6.994;2023-06-26T09:42:41;3.50;;;1.60;;
48552;SDS011;34335;51.566;6.994;2023-06-26T09:45:06;4.32;;;1.67;;
48552;SDS011;34335;51.566;6.994;2023-06-26T09:47:33;6.38;;;1.83;;
48552;SDS011;34335;51.566;6.994;2023-06-26T09:49:59;2.58;;;1.33;;
48552;SDS011;34335;51.566;6.994;2023-06-26T09:52:25;5.18;;;1.50;;
48552;SDS011;34335;51.566;6.994;2023-06-26T09:55:07;3.30;;;1.35;;
48552;SDS011;34335;51.566;6.994;2023-06-26T09:57:34;4.60;;;1.25;;
48552;SDS011;34335;51.566;6.994;2023-06-26T10:00:00;3.22;;;1.65;;
48552;SDS011;34335;51.566;6.994;2023-06-26T10:02:27;4.43;;;1.80;;
48552;SDS011;34335;51.566;6.994;2023-06-26T10:04:52;8.40;;;1.80;;
48552;SDS011;34335;51.566;6.994;2023-06-26T10:07:18;2.87;;;1.57;;
48552;SDS011;34335;51.566;6.994;2023-06-26T10:09:45;3.65;;;1.30;;
48552;SDS011;34335;51.566;6.994;2023-06-26T10:14:51;3.60;;;1.20;;
48552;SDS011;34335;51.566;6.994;2023-06-26T10:17:19;4.28;;;1.70;;
48552;SDS011;34335;51.566;6.994;2023-06-26T10:19:48;2.42;;;1.23;;
48552;SDS011;34335;51.566;6.994;2023-06-26T10:22:16;2.78;;;1.08;;
48552;SDS011;34335;51.566;6.994;2023-06-26T10:24:42;2.75;;;1.63;;
48552;SDS011;34335;51.566;6.994;2023-06-26T10:32:12;4.07;;;1.50;;
48552;SDS011;34335;51.566;6.994;2023-06-26T10:34:38;5.15;;;1.58;;
48552;SDS011;34335;51.566;6.994;2023-06-26T10:37:03;4.38;;;1.60;;
48552;SDS011;34335;51.566;6.994;2023-06-26T10:40:12;3.67;;;1.30;;
48552;SDS011;34335;51.566;6.994;2023-06-26T10:42:28;2.47;;;1.15;;
48552;SDS011;34335;51.566;6.994;2023-06-26T10:45:08;2.22;;;1.40;;
48552;SDS011;34335;51.566;6.994;2023-06-26T10:47:48;3.33;;;1.50;;
48552;SDS011;34335;51.566;6.994;2023-06-26T10:53:08;4.78;;;1.52;;
48552;SDS011;34335;51.566;6.994;2023-06-26T10:55:42;4.40;;;1.33;;
48552;SDS011;34335;51.566;6.994;2023-06-26T11:00:55;5.00;;;1.50;;
48552;SDS011;34335;51.566;6.994;2023-06-26T11:03:39;4.15;;;1.30;;
48552;SDS011;34335;51.566;6.994;2023-06-26T11:06:08;2.72;;;1.25;;
48552;SDS011;34335;51.566;6.994;2023-06-26T11:08:47;2.15;;;0.93;;
48552;SDS011;34335;51.566;6.994;2023-06-26T11:11:18;2.47;;;1.23;;
48552;SDS011;34335;51.566;6.994;2023-06-26T11:13:44;4.60;;;1.45;;
48552;SDS011;34335;51.566;6.994;2023-06-26T11:16:11;2.38;;;1.27;;
48552;SDS011;34335;51.566;6.994;2023-06-26T11:18:37;1.45;;;0.77;;
48552;SDS011;34335;51.566;6.994;2023-06-26T11:21:10;4.18;;;1.85;;
48552;SDS011;34335;51.566;6.994;2023-06-26T11:23:38;2.65;;;1.00;;
48552;SDS011;34335;51.566;6.994;2023-06-26T11:26:14;5.15;;;1.15;;
48552;SDS011;34335;51.566;6.994;2023-06-26T11:28:52;2.72;;;1.00;;
48552;SDS011;34335;51.566;6.994;2023-06-26T11:31:26;1.20;;;0.70;;
48552;SDS011;34335;51.566;6.994;2023-06-26T11:33:55;1.55;;;0.73;;
48552;SDS011;34335;51.566;6.994;2023-06-26T11:36:22;2.65;;;0.90;;
48552;SDS011;34335;51.566;6.994;2023-06-26T11:38:56;2.35;;;0.80;;
48552;SDS011;34335;51.566;6.994;2023-06-26T11:41:26;1.83;;;0.90;;
48552;SDS011;34335;51.566;6.994;2023-06-26T11:43:52;3.30;;;0.80;;
48552;SDS011;34335;51.566;6.994;2023-06-26T11:46:21;3.28;;;1.08;;
48552;SDS011;34335;51.566;6.994;2023-06-26T11:48:47;1.05;;;0.50;;
48552;SDS011;34335;51.566;6.994;2023-06-26T11:51:14;1.73;;;0.75;;
48552;SDS011;34335;51.566;6.994;2023-06-26T11:53:43;6.78;;;1.10;;
48552;SDS011;34335;51.566;6.994;2023-06-26T11:56:10;1.20;;;0.63;;
48552;SDS011;34335;51.566;6.994;2023-06-26T12:01:35;1.98;;;0.70;;
48552;SDS011;34335;51.566;6.994;2023-06-26T12:04:04;4.90;;;0.80;;
48552;SDS011;34335;51.566;6.994;2023-06-26T12:06:31;1.55;;;0.65;;
48552;SDS011;34335;51.566;6.994;2023-06-26T12:08:59;1.17;;;0.73;;
48552;SDS011;34335;51.566;6.994;2023-06-26T12:11:27;0.82;;;0.50;;
48552;SDS011;34335;51.566;6.994;2023-06-26T12:13:53;0.77;;;0.50;;
48552;SDS011;34335;51.566;6.994;2023-06-26T12:16:19;3.55;;;1.13;;
48552;SDS011;34335;51.566;6.994;2023-06-26T12:18:45;0.85;;;0.47;;
48552;SDS011;34335;51.566;6.994;2023-06-26T12:24:09;0.25;;;0.25;;
48552;SDS011;34335;51.566;6.994;2023-06-26T12:26:38;1.52;;;0.63;;
48552;SDS011;34335;51.566;6.994;2023-06-26T12:29:07;0.47;;;0.40;;
48552;SDS011;34335;51.566;6.994;2023-06-26T12:31:34;1.02;;;0.60;;
48552;SDS011;34335;51.566;6.994;2023-06-26T12:34:01;2.85;;;0.68;;
48552;SDS011;34335;51.566;6.994;2023-06-26T12:36:26;0.73;;;0.35;;
48552;SDS011;34335;51.566;6.994;2023-06-26T12:38:53;1.02;;;0.47;;
48552;SDS011;34335;51.566;6.994;2023-06-26T12:41:19;0.68;;;0.35;;
48552;SDS011;34335;51.566;6.994;2023-06-26T12:43:45;1.52;;;0.60;;
48552;SDS011;34335;51.566;6.994;2023-06-26T12:46:11;2.35;;;0.73;;
48552;SDS011;34335;51.566;6.994;2023-06-26T12:48:40;1.42;;;0.63;;
48552;SDS011;34335;51.566;6.994;2023-06-26T12:51:11;1.30;;;0.70;;
48552;SDS011;34335;51.566;6.994;2023-06-26T12:53:38;5.40;;;0.80;;
48552;SDS011;34335;51.566;6.994;2023-06-26T12:56:06;1.00;;;0.63;;
48552;SDS011;34335;51.566;6.994;2023-06-26T12:58:32;2.97;;;0.55;;
48552;SDS011;34335;51.566;6.994;2023-06-26T13:00:58;1.50;;;0.63;;
48552;SDS011;34335;51.566;6.994;2023-06-26T13:03:24;2.22;;;0.68;;
48552;SDS011;34335;51.566;6.994;2023-06-26T13:05:49;2.40;;;0.93;;
48552;SDS011;34335;51.566;6.994;2023-06-26T13:08:14;1.23;;;0.60;;
48552;SDS011;34335;51.566;6.994;2023-06-26T13:10:42;1.33;;;0.55;;
48552;SDS011;34335;51.566;6.994;2023-06-26T13:13:07;1.23;;;0.40;;
48552;SDS011;34335;51.566;6.994;2023-06-26T13:15:33;1.23;;;0.57;;
48552;SDS011;34335;51.566;6.994;2023-06-26T13:17:58;0.37;;;0.30;;
48552;SDS011;34335;51.566;6.994;2023-06-26T13:20:24;0.90;;;0.57;;
48552;SDS011;34335;51.566;6.994;2023-06-26T13:22:49;1.37;;;0.60;;
48552;SDS011;34335;51.566;6.994;2023-06-26T13:25:14;3.77;;;0.53;;
48552;SDS011;34335;51.566;6.994;2023-06-26T13:27:40;1.08;;;0.57;;
48552;SDS011;34335;51.566;6.994;2023-06-26T13:30:05;1.70;;;0.57;;
48552;SDS011;34335;51.566;6.994;2023-06-26T13:32:31;0.85;;;0.50;;
48552;SDS011;34335;51.566;6.994;2023-06-26T13:34:57;2.05;;;0.70;;
48552;SDS011;34335;51.566;6.994;2023-06-26T13:37:22;0.60;;;0.40;;
48552;SDS011;34335;51.566;6.994;2023-06-26T13:39:48;1.67;;;0.60;;
48552;SDS011;34335;51.566;6.994;2023-06-26T13:42:15;1.80;;;0.60;;
48552;SDS011;34335;51.566;6.994;2023-06-26T13:44:41;1.00;;;0.43;;
48552;SDS011;34335;51.566;6.994;2023-06-26T13:47:06;0.65;;;0.40;;
48552;SDS011;34335;51.566;6.994;2023-06-26T13:49:32;1.17;;;0.60;;
48552;SDS011;34335;51.566;6.994;2023-06-26T13:51:57;1.93;;;0.83;;
48552;SDS011;34335;51.566;6.994;2023-06-26T13:54:23;2.20;;;0.80;;
48552;SDS011;34335;51.566;6.994;2023-06-26T13:56:48;1.37;;;0.40;;
48552;SDS011;34335;51.566;6.994;2023-06-26T13:59:13;4.27;;;0.50;;
48552;SDS011;34335;51.566;6.994;2023-06-26T14:01:39;1.65;;;0.50;;
48552;SDS011;34335;51.566;6.994;2023-06-26T14:04:07;1.10;;;0.50;;
48552;SDS011;34335;51.566;6.994;2023-06-26T14:06:33;0.98;;;0.52;;
48552;SDS011;34335;51.566;6.994;2023-06-26T14:08:59;1.02;;;0.40;;
48552;SDS011;34335;51.566;6.994;2023-06-26T14:11:24;1.17;;;0.45;;
48552;SDS011;34335;51.566;6.994;2023-06-26T14:13:50;1.15;;;0.55;;
48552;SDS011;34335;51.566;6.994;2023-06-26T14:16:15;3.57;;;1.00;;
48552;SDS011;34335;51.566;6.994;2023-06-26T14:18:43;0.90;;;0.50;;
48552;SDS011;34335;51.566;6.994;2023-06-26T14:21:09;1.60;;;0.52;;
48552;SDS011;34335;51.566;6.994;2023-06-26T14:23:34;2.13;;;0.75;;
48552;SDS011;34335;51.566;6.994;2023-06-26T14:25:59;2.30;;;0.60;;
48552;SDS011;34335;51.566;6.994;2023-06-26T14:28:25;1.50;;;0.70;;
48552;SDS011;34335;51.566;6.994;2023-06-26T14:30:50;2.55;;;0.77;;
48552;SDS011;34335;51.566;6.994;2023-06-26T14:33:16;1.30;;;0.55;;
48552;SDS011;34335;51.566;6.994;2023-06-26T14:35:41;1.27;;;0.50;;
48552;SDS011;34335;51.566;6.994;2023-06-26T14:38:06;0.93;;;0.50;;
48552;SDS011;34335;51.566;6.994;2023-06-26T14:40:31;1.67;;;0.60;;
48552;SDS011;34335;51.566;6.994;2023-06-26T14:42:57;2.53;;;0.53;;
48552;SDS011;34335;51.566;6.994;2023-06-26T14:45:22;1.00;;;0.70;;
48552;SDS011;34335;51.566;6.994;2023-06-26T14:47:47;1.60;;;0.70;;
48552;SDS011;34335;51.566;6.994;2023-06-26T14:50:13;1.13;;;0.50;;
48552;SDS011;34335;51.566;6.994;2023-06-26T14:52:38;1.27;;;0.70;;
48552;SDS011;34335;51.566;6.994;2023-06-26T14:55:03;2.83;;;0.73;;
48552;SDS011;34335;51.566;6.994;2023-06-26T14:57:29;2.45;;;0.77;;
48552;SDS011;34335;51.566;6.994;2023-06-26T14:59:55;1.02;;;0.65;;
48552;SDS011;34335;51.566;6.994;2023-06-26T15:02:20;7.20;;;0.90;;
48552;SDS011;34335;51.566;6.994;2023-06-26T15:04:46;1.50;;;0.73;;
48552;SDS011;34335;51.566;6.994;2023-06-26T15:07:11;2.00;;;0.70;;
48552;SDS011;34335;51.566;6.994;2023-06-26T15:09:36;2.90;;;0.63;;